sensor_id;sensor_type;location;lat;lon;timestamp;P1;durP1;ratioP1;P2;durP2;ratioP2
78716;SDS011;68045;50.042;14.432;2023-03-01T00:02:39;46.33;;;17.95;;
78716;SDS011;68045;50.042;14.432;2023-03-01T00:06:41;42.78;;;19.58;;
78716;SDS011;68045;50.042;14.432;2023-03-01T00:10:43;52.55;;;21.08;;
78716;SDS011;68045;50.042;14.432;2023-03-01T00:14:44;41.60;;;18.63;;
78716;SDS011;68045;50.042;14.432;2023-03-01T00:18:45;38.50;;;18.67;;
78716;SDS011;68045;50.042;14.432;2023-03-01T00:22:46;43.88;;;17.98;;
78716;SDS011;68045;50.042;14.432;2023-03-01T00:26:47;38.17;;;16.13;;
78716;SDS011;68045;50.042;14.432;2023-03-01T00:30:48;44.67;;;18.88;;
78716;SDS011;68045;50.042;14.432;2023-03-01T00:34:49;42.53;;;19.88;;
78716;SDS011;68045;50.042;14.432;2023-03-01T00:38:54;38.38;;;17.73;;
78716;SDS011;68045;50.042;14.432;2023-03-01T00:42:56;40.67;;;18.33;;
78716;SDS011;68045;50.042;14.432;2023-03-01T00:46:57;36.95;;;17.83;;
78716;SDS011;68045;50.042;14.432;2023-03-01T00:51:13;43.33;;;19.23;;
78716;SDS011;68045;50.042;14.432;2023-03-01T00:55:15;38.78;;;17.83;;
78716;SDS011;68045;50.042;14.432;2023-03-01T00:59:16;35.95;;;15.80;;
78716;SDS011;68045;50.042;14.432;2023-03-01T01:03:18;37.38;;;16.92;;
78716;SDS011;68045;50.042;14.432;2023-03-01T01:07:19;43.72;;;19.10;;
78716;SDS011;68045;50.042;14.432;2023-03-01T01:11:21;37.30;;;18.05;;
78716;SDS011;68045;50.042;14.432;2023-03-01T01:15:23;39.30;;;17.33;;
78716;SDS011;68045;50.042;14.432;2023-03-01T01:19:24;47.65;;;19.42;;
78716;SDS011;68045;50.042;14.432;2023-03-01T01:23:25;38.92;;;18.20;;
78716;SDS011;68045;50.042;14.432;2023-03-01T01:27:26;42.35;;;17.33;;
78716;SDS011;68045;50.042;14.432;2023-03-01T01:31:27;41.80;;;18.33;;
78716;SDS011;68045;50.042;14.432;2023-03-01T01:35:29;38.22;;;17.95;;
78716;SDS011;68045;50.042;14.432;2023-03-01T01:39:30;47.53;;;18.50;;
78716;SDS011;68045;50.042;14.432;2023-03-01T01:43:36;43.67;;;17.58;;
78716;SDS011;68045;50.042;14.432;2023-03-01T01:48:03;36.50;;;16.73;;
78716;SDS011;68045;50.042;14.432;2023-03-01T01:52:14;41.63;;;16.67;;
78716;SDS011;68045;50.042;14.432;2023-03-01T01:56:28;41.72;;;16.45;;
78716;SDS011;68045;50.042;14.432;2023-03-01T02:00:30;34.60;;;16.08;;
78716;SDS011;68045;50.042;14.432;2023-03-01T02:04:31;31.83;;;14.07;;
78716;SDS011;68045;50.042;14.432;2023-03-01T02:08:38;33.50;;;16.13;;
78716;SDS011;68045;50.042;14.432;2023-03-01T02:12:42;38.78;;;16.02;;
78716;SDS011;68045;50.042;14.432;2023-03-01T02:16:43;35.38;;;14.82;;
78716;SDS011;68045;50.042;14.432;2023-03-01T02:29:07;28.35;;;13.95;;
78716;SDS011;68045;50.042;14.432;2023-03-01T02:33:08;27.65;;;12.77;;
78716;SDS011;68045;50.042;14.432;2023-03-01T02:37:11;32.95;;;13.45;;
78716;SDS011;68045;50.042;14.432;2023-03-01T02:41:16;32.60;;;15.07;;
78716;SDS011;68045;50.042;14.432;2023-03-01T02:45:20;31.80;;;13.35;;
78716;SDS011;68045;50.042;14.432;2023-03-01T02:49:23;35.15;;;14.32;;
78716;SDS011;68045;50.042;14.432;2023-03-01T02:53:34;32.78;;;13.65;;
78716;SDS011;68045;50.042;14.432;2023-03-01T02:57:43;33.65;;;12.52;;
78716;SDS011;68045;50.042;14.432;2023-03-01T03:01:47;35.03;;;15.27;;
78716;SDS011;68045;50.042;14.432;2023-03-01T03:05:48;35.65;;;15.02;;
78716;SDS011;68045;50.042;14.432;2023-03-01T03:09:49;37.50;;;13.57;;
78716;SDS011;68045;50.042;14.432;2023-03-01T03:13:50;34.95;;;14.43;;
78716;SDS011;68045;50.042;14.432;2023-03-01T03:17:53;37.28;;;16.73;;
78716;SDS011;68045;50.042;14.432;2023-03-01T03:21:54;36.20;;;15.35;;
78716;SDS011;68045;50.042;14.432;2023-03-01T03:25:55;29.83;;;13.68;;
78716;SDS011;68045;50.042;14.432;2023-03-01T03:29:56;31.50;;;13.55;;
78716;SDS011;68045;50.042;14.432;2023-03-01T03:33:57;31.67;;;15.20;;
78716;SDS011;68045;50.042;14.432;2023-03-01T03:38:00;39.25;;;14.75;;
78716;SDS011;68045;50.042;14.432;2023-03-01T03:42:04;36.92;;;14.57;;
78716;SDS011;68045;50.042;14.432;2023-03-01T03:46:05;32.83;;;13.43;;
78716;SDS011;68045;50.042;14.432;2023-03-01T03:50:07;35.83;;;14.93;;
78716;SDS011;68045;50.042;14.432;2023-03-01T03:54:10;31.42;;;14.15;;
78716;SDS011;68045;50.042;14.432;2023-03-01T03:58:11;31.48;;;14.27;;
78716;SDS011;68045;50.042;14.432;2023-03-01T04:02:12;40.67;;;16.35;;
78716;SDS011;68045;50.042;14.432;2023-03-01T04:06:13;33.30;;;13.52;;
78716;SDS011;68045;50.042;14.432;2023-03-01T04:10:16;34.25;;;13.63;;
78716;SDS011;68045;50.042;14.432;2023-03-01T04:14:17;32.67;;;15.13;;
78716;SDS011;68045;50.042;14.432;2023-03-01T04:18:19;28.85;;;13.52;;
78716;SDS011;68045;50.042;14.432;2023-03-01T04:22:23;37.53;;;14.88;;
78716;SDS011;68045;50.042;14.432;2023-03-01T04:26:30;29.70;;;13.68;;
78716;SDS011;68045;50.042;14.432;2023-03-01T04:30:31;34.47;;;14.77;;
78716;SDS011;68045;50.042;14.432;2023-03-01T04:34:36;31.85;;;16.15;;
78716;SDS011;68045;50.042;14.432;2023-03-01T04:38:37;33.35;;;15.80;;
78716;SDS011;68045;50.042;14.432;2023-03-01T04:42:39;34.78;;;15.45;;
78716;SDS011;68045;50.042;14.432;2023-03-01T04:46:40;41.90;;;17.58;;
78716;SDS011;68045;50.042;14.432;2023-03-01T04:50:41;36.30;;;16.52;;
78716;SDS011;68045;50.042;14.432;2023-03-01T04:54:42;36.65;;;16.15;;
78716;SDS011;68045;50.042;14.432;2023-03-01T04:58:44;39.55;;;16.50;;
78716;SDS011;68045;50.042;14.432;2023-03-01T05:02:47;43.13;;;18.23;;
78716;SDS011;68045;50.042;14.432;2023-03-01T05:06:55;42.70;;;17.58;;
78716;SDS011;68045;50.042;14.432;2023-03-01T05:10:59;32.42;;;15.82;;
78716;SDS011;68045;50.042;14.432;2023-03-01T05:15:00;37.78;;;15.95;;
78716;SDS011;68045;50.042;14.432;2023-03-01T05:19:07;37.03;;;16.23;;
78716;SDS011;68045;50.042;14.432;2023-03-01T05:23:15;37.03;;;16.17;;
78716;SDS011;68045;50.042;14.432;2023-03-01T05:27:17;35.70;;;16.67;;
78716;SDS011;68045;50.042;14.432;2023-03-01T05:31:18;39.13;;;16.30;;
78716;SDS011;68045;50.042;14.432;2023-03-01T05:35:19;36.70;;;14.88;;
78716;SDS011;68045;50.042;14.432;2023-03-01T05:39:20;31.70;;;14.68;;
78716;SDS011;68045;50.042;14.432;2023-03-01T05:43:23;37.10;;;16.58;;
78716;SDS011;68045;50.042;14.432;2023-03-01T05:47:24;30.52;;;13.85;;
78716;SDS011;68045;50.042;14.432;2023-03-01T05:51:25;38.72;;;16.15;;
78716;SDS011;68045;50.042;14.432;2023-03-01T05:55:26;38.15;;;16.67;;
78716;SDS011;68045;50.042;14.432;2023-03-01T05:59:29;33.20;;;15.77;;
78716;SDS011;68045;50.042;14.432;2023-03-01T06:03:30;37.08;;;15.65;;
78716;SDS011;68045;50.042;14.432;2023-03-01T06:07:31;35.60;;;16.80;;
78716;SDS011;68045;50.042;14.432;2023-03-01T06:11:33;36.00;;;14.60;;
78716;SDS011;68045;50.042;14.432;2023-03-01T06:15:35;32.45;;;14.10;;
78716;SDS011;68045;50.042;14.432;2023-03-01T06:19:37;36.97;;;14.88;;
78716;SDS011;68045;50.042;14.432;2023-03-01T06:23:38;34.97;;;14.73;;
78716;SDS011;68045;50.042;14.432;2023-03-01T06:27:39;35.53;;;14.75;;
78716;SDS011;68045;50.042;14.432;2023-03-01T06:31:41;43.75;;;17.70;;
78716;SDS011;68045;50.042;14.432;2023-03-01T06:35:42;34.85;;;16.30;;
78716;SDS011;68045;50.042;14.432;2023-03-01T06:39:43;38.78;;;16.60;;
78716;SDS011;68045;50.042;14.432;2023-03-01T06:43:44;35.72;;;15.63;;
78716;SDS011;68045;50.042;14.432;2023-03-01T06:47:45;41.28;;;17.23;;
78716;SDS011;68045;50.042;14.432;2023-03-01T06:51:46;40.58;;;17.13;;
78716;SDS011;68045;50.042;14.432;2023-03-01T06:55:53;48.28;;;17.88;;
78716;SDS011;68045;50.042;14.432;2023-03-01T06:59:54;40.13;;;17.05;;
78716;SDS011;68045;50.042;14.432;2023-03-01T07:03:56;40.38;;;17.08;;
78716;SDS011;68045;50.042;14.432;2023-03-01T07:07:57;39.88;;;17.50;;
78716;SDS011;68045;50.042;14.432;2023-03-01T07:11:58;33.20;;;15.55;;
78716;SDS011;68045;50.042;14.432;2023-03-01T07:16:01;37.83;;;16.70;;
78716;SDS011;68045;50.042;14.432;2023-03-01T07:20:02;40.38;;;18.17;;
78716;SDS011;68045;50.042;14.432;2023-03-01T07:24:05;37.17;;;16.65;;
78716;SDS011;68045;50.042;14.432;2023-03-01T07:28:07;43.83;;;18.30;;
78716;SDS011;68045;50.042;14.432;2023-03-01T07:32:08;38.25;;;17.17;;
78716;SDS011;68045;50.042;14.432;2023-03-01T07:36:11;35.60;;;15.98;;
78716;SDS011;68045;50.042;14.432;2023-03-01T07:40:12;42.25;;;16.02;;
78716;SDS011;68045;50.042;14.432;2023-03-01T07:44:13;35.35;;;15.90;;
78716;SDS011;68045;50.042;14.432;2023-03-01T07:48:16;33.92;;;15.68;;
78716;SDS011;68045;50.042;14.432;2023-03-01T07:52:17;38.50;;;15.98;;
78716;SDS011;68045;50.042;14.432;2023-03-01T07:56:18;35.03;;;16.30;;
78716;SDS011;68045;50.042;14.432;2023-03-01T08:00:20;32.53;;;15.57;;
78716;SDS011;68045;50.042;14.432;2023-03-01T08:04:21;35.30;;;16.48;;
78716;SDS011;68045;50.042;14.432;2023-03-01T08:08:25;32.40;;;16.17;;
78716;SDS011;68045;50.042;14.432;2023-03-01T08:12:27;41.42;;;17.00;;
78716;SDS011;68045;50.042;14.432;2023-03-01T08:16:28;37.38;;;16.42;;
78716;SDS011;68045;50.042;14.432;2023-03-01T08:20:29;35.65;;;17.08;;
78716;SDS011;68045;50.042;14.432;2023-03-01T08:24:30;39.60;;;17.17;;
78716;SDS011;68045;50.042;14.432;2023-03-01T08:28:32;37.13;;;17.75;;
78716;SDS011;68045;50.042;14.432;2023-03-01T08:32:37;35.05;;;17.55;;
78716;SDS011;68045;50.042;14.432;2023-03-01T08:36:39;29.67;;;17.77;;
78716;SDS011;68045;50.042;14.432;2023-03-01T08:40:44;38.65;;;19.48;;
78716;SDS011;68045;50.042;14.432;2023-03-01T08:44:45;35.65;;;18.73;;
78716;SDS011;68045;50.042;14.432;2023-03-01T08:48:46;37.88;;;19.20;;
78716;SDS011;68045;50.042;14.432;2023-03-01T08:52:47;32.42;;;18.38;;
78716;SDS011;68045;50.042;14.432;2023-03-01T08:56:48;30.02;;;18.38;;
78716;SDS011;68045;50.042;14.432;2023-03-01T09:00:50;35.72;;;19.48;;
78716;SDS011;68045;50.042;14.432;2023-03-01T09:04:51;33.30;;;19.10;;
78716;SDS011;68045;50.042;14.432;2023-03-01T09:12:56;30.50;;;19.25;;
78716;SDS011;68045;50.042;14.432;2023-03-01T09:16:58;28.95;;;17.67;;
78716;SDS011;68045;50.042;14.432;2023-03-01T09:21:03;28.38;;;18.20;;
78716;SDS011;68045;50.042;14.432;2023-03-01T09:25:07;25.63;;;17.33;;
78716;SDS011;68045;50.042;14.432;2023-03-01T09:29:08;26.45;;;16.65;;
78716;SDS011;68045;50.042;14.432;2023-03-01T09:33:10;26.70;;;16.23;;
78716;SDS011;68045;50.042;14.432;2023-03-01T09:37:15;26.27;;;17.10;;
78716;SDS011;68045;50.042;14.432;2023-03-01T09:45:36;25.17;;;16.88;;
78716;SDS011;68045;50.042;14.432;2023-03-01T09:49:41;28.45;;;15.80;;
78716;SDS011;68045;50.042;14.432;2023-03-01T09:53:49;29.38;;;17.23;;
78716;SDS011;68045;50.042;14.432;2023-03-01T09:57:51;23.05;;;17.20;;
78716;SDS011;68045;50.042;14.432;2023-03-01T10:01:59;24.25;;;16.10;;
78716;SDS011;68045;50.042;14.432;2023-03-01T10:06:15;23.15;;;17.10;;
78716;SDS011;68045;50.042;14.432;2023-03-01T10:10:37;22.50;;;16.38;;
78716;SDS011;68045;50.042;14.432;2023-03-01T10:18:45;19.42;;;14.18;;
78716;SDS011;68045;50.042;14.432;2023-03-01T10:22:50;21.48;;;16.58;;
78716;SDS011;68045;50.042;14.432;2023-03-01T10:26:56;21.52;;;16.98;;
78716;SDS011;68045;50.042;14.432;2023-03-01T10:30:59;23.30;;;17.20;;
78716;SDS011;68045;50.042;14.432;2023-03-01T10:35:01;25.63;;;15.50;;
78716;SDS011;68045;50.042;14.432;2023-03-01T10:39:02;18.10;;;14.07;;
78716;SDS011;68045;50.042;14.432;2023-03-01T10:43:20;21.45;;;15.10;;
78716;SDS011;68045;50.042;14.432;2023-03-01T10:47:23;20.63;;;14.13;;
78716;SDS011;68045;50.042;14.432;2023-03-01T10:51:27;18.73;;;14.73;;
78716;SDS011;68045;50.042;14.432;2023-03-01T10:55:30;19.17;;;14.20;;
78716;SDS011;68045;50.042;14.432;2023-03-01T10:59:36;19.70;;;14.82;;
78716;SDS011;68045;50.042;14.432;2023-03-01T11:03:39;21.88;;;14.15;;
78716;SDS011;68045;50.042;14.432;2023-03-01T11:07:53;24.33;;;14.40;;
78716;SDS011;68045;50.042;14.432;2023-03-01T11:11:59;20.60;;;15.25;;
78716;SDS011;68045;50.042;14.432;2023-03-01T11:16:02;22.33;;;15.48;;
78716;SDS011;68045;50.042;14.432;2023-03-01T11:24:14;20.90;;;16.13;;
78716;SDS011;68045;50.042;14.432;2023-03-01T11:28:17;22.50;;;17.58;;
78716;SDS011;68045;50.042;14.432;2023-03-01T11:32:21;21.77;;;16.52;;
78716;SDS011;68045;50.042;14.432;2023-03-01T11:40:41;22.10;;;17.02;;
78716;SDS011;68045;50.042;14.432;2023-03-01T11:44:50;22.10;;;17.27;;
78716;SDS011;68045;50.042;14.432;2023-03-01T11:57:07;22.13;;;16.42;;
78716;SDS011;68045;50.042;14.432;2023-03-01T12:27:09;20.95;;;16.45;;
78716;SDS011;68045;50.042;14.432;2023-03-01T12:36:24;24.55;;;16.95;;
78716;SDS011;68045;50.042;14.432;2023-03-01T12:45:05;21.48;;;16.42;;
78716;SDS011;68045;50.042;14.432;2023-03-01T12:49:37;22.42;;;15.70;;
78716;SDS011;68045;50.042;14.432;2023-03-01T12:53:45;23.02;;;17.27;;
78716;SDS011;68045;50.042;14.432;2023-03-01T13:06:49;18.83;;;14.20;;
78716;SDS011;68045;50.042;14.432;2023-03-01T13:11:06;18.50;;;14.43;;
78716;SDS011;68045;50.042;14.432;2023-03-01T13:19:25;21.75;;;16.90;;
78716;SDS011;68045;50.042;14.432;2023-03-01T13:23:33;21.55;;;16.15;;
78716;SDS011;68045;50.042;14.432;2023-03-01T13:27:36;20.23;;;16.92;;
78716;SDS011;68045;50.042;14.432;2023-03-01T13:35:41;23.25;;;17.65;;
78716;SDS011;68045;50.042;14.432;2023-03-01T13:39:44;21.70;;;17.75;;
78716;SDS011;68045;50.042;14.432;2023-03-01T13:43:45;20.90;;;16.98;;
78716;SDS011;68045;50.042;14.432;2023-03-01T13:47:49;21.80;;;17.15;;
78716;SDS011;68045;50.042;14.432;2023-03-01T13:51:55;21.65;;;15.90;;
78716;SDS011;68045;50.042;14.432;2023-03-01T13:55:58;23.20;;;16.67;;
78716;SDS011;68045;50.042;14.432;2023-03-01T14:00:03;20.90;;;16.20;;
78716;SDS011;68045;50.042;14.432;2023-03-01T14:04:22;18.73;;;14.85;;
78716;SDS011;68045;50.042;14.432;2023-03-01T14:08:24;22.90;;;15.20;;
78716;SDS011;68045;50.042;14.432;2023-03-01T14:20:53;24.83;;;15.02;;
78716;SDS011;68045;50.042;14.432;2023-03-01T14:24:59;26.00;;;15.38;;
78716;SDS011;68045;50.042;14.432;2023-03-01T14:29:02;18.65;;;13.68;;
78716;SDS011;68045;50.042;14.432;2023-03-01T14:33:05;22.42;;;15.40;;
78716;SDS011;68045;50.042;14.432;2023-03-01T14:41:33;21.27;;;14.57;;
78716;SDS011;68045;50.042;14.432;2023-03-01T14:45:36;23.60;;;13.68;;
78716;SDS011;68045;50.042;14.432;2023-03-01T14:49:37;22.10;;;14.48;;
78716;SDS011;68045;50.042;14.432;2023-03-01T14:53:39;21.15;;;14.02;;
78716;SDS011;68045;50.042;14.432;2023-03-01T14:57:42;22.77;;;15.30;;
78716;SDS011;68045;50.042;14.432;2023-03-01T15:01:45;22.98;;;14.77;;
78716;SDS011;68045;50.042;14.432;2023-03-01T15:05:47;22.50;;;14.23;;
78716;SDS011;68045;50.042;14.432;2023-03-01T15:09:48;17.13;;;12.88;;
78716;SDS011;68045;50.042;14.432;2023-03-01T15:13:50;21.35;;;13.70;;
78716;SDS011;68045;50.042;14.432;2023-03-01T15:17:53;22.70;;;13.77;;
78716;SDS011;68045;50.042;14.432;2023-03-01T15:21:56;23.83;;;14.35;;
78716;SDS011;68045;50.042;14.432;2023-03-01T15:25:57;19.65;;;13.35;;
78716;SDS011;68045;50.042;14.432;2023-03-01T15:29:59;20.08;;;13.45;;
78716;SDS011;68045;50.042;14.432;2023-03-01T15:34:10;18.80;;;13.27;;
78716;SDS011;68045;50.042;14.432;2023-03-01T15:38:27;22.08;;;14.23;;
78716;SDS011;68045;50.042;14.432;2023-03-01T15:46:34;21.02;;;14.20;;
78716;SDS011;68045;50.042;14.432;2023-03-01T15:50:38;25.33;;;13.40;;
78716;SDS011;68045;50.042;14.432;2023-03-01T15:54:40;22.85;;;13.15;;
78716;SDS011;68045;50.042;14.432;2023-03-01T15:58:41;19.23;;;12.25;;
78716;SDS011;68045;50.042;14.432;2023-03-01T16:02:43;22.20;;;13.85;;
78716;SDS011;68045;50.042;14.432;2023-03-01T16:06:44;21.75;;;12.48;;
78716;SDS011;68045;50.042;14.432;2023-03-01T16:10:46;19.52;;;13.20;;
78716;SDS011;68045;50.042;14.432;2023-03-01T16:14:48;22.83;;;11.70;;
78716;SDS011;68045;50.042;14.432;2023-03-01T16:18:50;19.42;;;11.50;;
78716;SDS011;68045;50.042;14.432;2023-03-01T16:22:51;18.38;;;11.38;;
78716;SDS011;68045;50.042;14.432;2023-03-01T16:26:52;20.17;;;11.00;;
78716;SDS011;68045;50.042;14.432;2023-03-01T16:30:53;19.67;;;10.75;;
78716;SDS011;68045;50.042;14.432;2023-03-01T16:34:54;20.77;;;11.13;;
78716;SDS011;68045;50.042;14.432;2023-03-01T16:38:55;21.83;;;10.70;;
78716;SDS011;68045;50.042;14.432;2023-03-01T16:42:59;20.73;;;10.82;;
78716;SDS011;68045;50.042;14.432;2023-03-01T16:47:01;21.25;;;12.02;;
78716;SDS011;68045;50.042;14.432;2023-03-01T16:51:03;24.35;;;11.63;;
78716;SDS011;68045;50.042;14.432;2023-03-01T16:55:05;24.60;;;10.98;;
78716;SDS011;68045;50.042;14.432;2023-03-01T16:59:10;25.20;;;11.63;;
78716;SDS011;68045;50.042;14.432;2023-03-01T17:03:11;26.10;;;12.43;;
78716;SDS011;68045;50.042;14.432;2023-03-01T17:07:14;25.92;;;12.13;;
78716;SDS011;68045;50.042;14.432;2023-03-01T17:11:16;23.20;;;11.32;;
78716;SDS011;68045;50.042;14.432;2023-03-01T17:15:19;23.55;;;11.00;;
78716;SDS011;68045;50.042;14.432;2023-03-01T17:19:20;23.50;;;11.48;;
78716;SDS011;68045;50.042;14.432;2023-03-01T17:23:22;29.40;;;11.32;;
78716;SDS011;68045;50.042;14.432;2023-03-01T17:27:23;29.55;;;12.07;;
78716;SDS011;68045;50.042;14.432;2023-03-01T17:31:24;29.73;;;13.07;;
78716;SDS011;68045;50.042;14.432;2023-03-01T17:35:25;28.33;;;12.20;;
78716;SDS011;68045;50.042;14.432;2023-03-01T17:39:26;30.30;;;10.90;;
78716;SDS011;68045;50.042;14.432;2023-03-01T17:43:35;23.20;;;10.77;;
78716;SDS011;68045;50.042;14.432;2023-03-01T17:47:36;29.08;;;12.20;;
78716;SDS011;68045;50.042;14.432;2023-03-01T17:51:37;29.42;;;12.10;;
78716;SDS011;68045;50.042;14.432;2023-03-01T17:55:39;26.77;;;12.90;;
78716;SDS011;68045;50.042;14.432;2023-03-01T17:59:41;24.20;;;11.95;;
78716;SDS011;68045;50.042;14.432;2023-03-01T18:03:42;29.48;;;12.15;;
78716;SDS011;68045;50.042;14.432;2023-03-01T18:07:47;27.00;;;12.05;;
78716;SDS011;68045;50.042;14.432;2023-03-01T18:11:48;26.75;;;11.32;;
78716;SDS011;68045;50.042;14.432;2023-03-01T18:15:49;25.30;;;11.75;;
78716;SDS011;68045;50.042;14.432;2023-03-01T18:19:50;26.95;;;12.75;;
78716;SDS011;68045;50.042;14.432;2023-03-01T18:23:51;22.08;;;11.40;;
78716;SDS011;68045;50.042;14.432;2023-03-01T18:27:53;25.92;;;12.65;;
78716;SDS011;68045;50.042;14.432;2023-03-01T18:31:53;25.13;;;12.38;;
78716;SDS011;68045;50.042;14.432;2023-03-01T18:35:54;25.88;;;12.25;;
78716;SDS011;68045;50.042;14.432;2023-03-01T18:39:55;34.05;;;13.32;;
78716;SDS011;68045;50.042;14.432;2023-03-01T18:43:57;27.80;;;12.20;;
78716;SDS011;68045;50.042;14.432;2023-03-01T18:47:58;22.52;;;11.73;;
78716;SDS011;68045;50.042;14.432;2023-03-01T18:52:00;23.05;;;12.45;;
78716;SDS011;68045;50.042;14.432;2023-03-01T18:56:01;25.48;;;12.45;;
78716;SDS011;68045;50.042;14.432;2023-03-01T19:00:03;29.83;;;12.90;;
78716;SDS011;68045;50.042;14.432;2023-03-01T19:04:04;25.85;;;11.82;;
78716;SDS011;68045;50.042;14.432;2023-03-01T19:08:06;28.10;;;12.77;;
78716;SDS011;68045;50.042;14.432;2023-03-01T19:12:07;34.70;;;13.02;;
78716;SDS011;68045;50.042;14.432;2023-03-01T19:16:09;29.67;;;13.70;;
78716;SDS011;68045;50.042;14.432;2023-03-01T19:20:10;32.80;;;14.52;;
78716;SDS011;68045;50.042;14.432;2023-03-01T19:24:12;27.42;;;12.88;;
78716;SDS011;68045;50.042;14.432;2023-03-01T19:28:12;31.10;;;13.50;;
78716;SDS011;68045;50.042;14.432;2023-03-01T19:32:14;29.50;;;12.93;;
78716;SDS011;68045;50.042;14.432;2023-03-01T19:36:15;33.63;;;14.40;;
78716;SDS011;68045;50.042;14.432;2023-03-01T19:40:17;34.67;;;14.32;;
78716;SDS011;68045;50.042;14.432;2023-03-01T19:44:18;32.30;;;14.32;;
78716;SDS011;68045;50.042;14.432;2023-03-01T19:48:24;33.95;;;14.65;;
78716;SDS011;68045;50.042;14.432;2023-03-01T19:52:25;31.35;;;15.00;;
78716;SDS011;68045;50.042;14.432;2023-03-01T19:56:26;32.40;;;16.23;;
78716;SDS011;68045;50.042;14.432;2023-03-01T20:00:28;40.97;;;16.25;;
78716;SDS011;68045;50.042;14.432;2023-03-01T20:04:29;38.50;;;16.95;;
78716;SDS011;68045;50.042;14.432;2023-03-01T20:08:30;33.22;;;15.70;;
78716;SDS011;68045;50.042;14.432;2023-03-01T20:12:34;40.60;;;17.10;;
78716;SDS011;68045;50.042;14.432;2023-03-01T20:16:37;40.88;;;15.73;;
78716;SDS011;68045;50.042;14.432;2023-03-01T20:20:39;35.67;;;15.80;;
78716;SDS011;68045;50.042;14.432;2023-03-01T20:24:41;35.28;;;15.98;;
78716;SDS011;68045;50.042;14.432;2023-03-01T20:28:43;39.10;;;17.60;;
78716;SDS011;68045;50.042;14.432;2023-03-01T20:32:45;35.90;;;16.15;;
78716;SDS011;68045;50.042;14.432;2023-03-01T20:36:46;36.38;;;15.70;;
78716;SDS011;68045;50.042;14.432;2023-03-01T20:40:47;42.35;;;17.88;;
78716;SDS011;68045;50.042;14.432;2023-03-01T20:44:48;41.92;;;17.77;;
78716;SDS011;68045;50.042;14.432;2023-03-01T20:48:50;37.30;;;17.05;;
78716;SDS011;68045;50.042;14.432;2023-03-01T20:52:51;34.78;;;16.58;;
78716;SDS011;68045;50.042;14.432;2023-03-01T20:56:52;38.70;;;18.17;;
78716;SDS011;68045;50.042;14.432;2023-03-01T21:00:53;39.97;;;18.02;;
78716;SDS011;68045;50.042;14.432;2023-03-01T21:04:55;41.85;;;19.98;;
78716;SDS011;68045;50.042;14.432;2023-03-01T21:08:56;47.45;;;19.67;;
78716;SDS011;68045;50.042;14.432;2023-03-01T21:12:57;35.63;;;17.80;;
78716;SDS011;68045;50.042;14.432;2023-03-01T21:16:59;39.63;;;17.25;;
78716;SDS011;68045;50.042;14.432;2023-03-01T21:25:03;37.70;;;16.60;;
78716;SDS011;68045;50.042;14.432;2023-03-01T21:29:05;35.15;;;16.20;;
78716;SDS011;68045;50.042;14.432;2023-03-01T21:33:07;41.30;;;16.88;;
78716;SDS011;68045;50.042;14.432;2023-03-01T21:37:08;41.38;;;17.05;;
78716;SDS011;68045;50.042;14.432;2023-03-01T21:41:13;44.03;;;19.35;;
78716;SDS011;68045;50.042;14.432;2023-03-01T21:45:16;41.88;;;21.08;;
78716;SDS011;68045;50.042;14.432;2023-03-01T21:49:17;41.72;;;18.13;;
78716;SDS011;68045;50.042;14.432;2023-03-01T21:53:19;42.53;;;18.73;;
78716;SDS011;68045;50.042;14.432;2023-03-01T21:57:20;44.20;;;19.40;;
78716;SDS011;68045;50.042;14.432;2023-03-01T22:01:22;36.00;;;15.82;;
78716;SDS011;68045;50.042;14.432;2023-03-01T22:05:25;38.08;;;17.48;;
78716;SDS011;68045;50.042;14.432;2023-03-01T22:09:26;40.40;;;18.25;;
78716;SDS011;68045;50.042;14.432;2023-03-01T22:13:27;40.97;;;17.35;;
78716;SDS011;68045;50.042;14.432;2023-03-01T22:17:28;42.88;;;18.60;;
78716;SDS011;68045;50.042;14.432;2023-03-01T22:21:29;41.47;;;17.00;;
78716;SDS011;68045;50.042;14.432;2023-03-01T22:25:30;41.45;;;18.58;;
78716;SDS011;68045;50.042;14.432;2023-03-01T22:29:31;46.25;;;18.48;;
78716;SDS011;68045;50.042;14.432;2023-03-01T22:33:32;44.17;;;18.75;;
78716;SDS011;68045;50.042;14.432;2023-03-01T22:37:34;55.80;;;19.73;;
78716;SDS011;68045;50.042;14.432;2023-03-01T22:41:40;41.28;;;18.58;;
78716;SDS011;68045;50.042;14.432;2023-03-01T22:45:43;41.22;;;17.65;;
78716;SDS011;68045;50.042;14.432;2023-03-01T22:49:45;47.40;;;18.70;;
78716;SDS011;68045;50.042;14.432;2023-03-01T22:53:46;40.45;;;18.15;;
78716;SDS011;68045;50.042;14.432;2023-03-01T22:57:50;45.83;;;19.02;;
78716;SDS011;68045;50.042;14.432;2023-03-01T23:01:51;41.35;;;17.63;;
78716;SDS011;68045;50.042;14.432;2023-03-01T23:05:53;44.33;;;18.85;;
78716;SDS011;68045;50.042;14.432;2023-03-01T23:09:54;62.15;;;26.35;;
78716;SDS011;68045;50.042;14.432;2023-03-01T23:13:56;48.28;;;19.50;;
78716;SDS011;68045;50.042;14.432;2023-03-01T23:17:58;46.22;;;19.35;;
78716;SDS011;68045;50.042;14.432;2023-03-01T23:21:59;44.30;;;19.30;;
78716;SDS011;68045;50.042;14.432;2023-03-01T23:26:01;46.10;;;19.75;;
78716;SDS011;68045;50.042;14.432;2023-03-01T23:30:02;46.35;;;20.10;;
78716;SDS011;68045;50.042;14.432;2023-03-01T23:38:06;44.78;;;18.73;;
78716;SDS011;68045;50.042;14.432;2023-03-01T23:42:07;47.67;;;21.17;;
78716;SDS011;68045;50.042;14.432;2023-03-01T23:46:08;52.05;;;21.80;;
78716;SDS011;68045;50.042;14.432;2023-03-01T23:50:13;45.92;;;20.85;;
78716;SDS011;68045;50.042;14.432;2023-03-01T23:54:16;51.17;;;21.60;;
78716;SDS011;68045;50.042;14.432;2023-03-01T23:58:19;44.17;;;20.02;;
